createdAt,value
2022-10-26T00:00:47.054Z,12.30
2022-10-26T00:01:47.178Z,13.60
2022-10-26T00:02:47.545Z,9.70
2022-10-26T00:03:47.668Z,12.20
2022-10-26T00:04:47.045Z,12.00
2022-10-26T00:05:47.040Z,14.40
2022-10-26T00:06:47.254Z,11.90
2022-10-26T00:07:47.056Z,13.10
2022-10-26T00:08:47.009Z,11.10
2022-10-26T00:09:47.029Z,15.00
2022-10-26T00:10:47.017Z,12.30
2022-10-26T00:11:47.003Z,13.10
2022-10-26T00:12:47.270Z,11.90
2022-10-26T00:13:46.969Z,14.20
2022-10-26T00:14:47.394Z,13.50
2022-10-26T00:15:46.985Z,11.50
2022-10-26T00:16:46.957Z,12.10
2022-10-26T00:17:47.323Z,12.60
2022-10-26T00:18:46.940Z,14.50
2022-10-26T00:19:46.929Z,13.50
2022-10-26T00:20:47.260Z,16.40
2022-10-26T00:21:46.944Z,14.40
2022-10-26T00:22:46.925Z,16.00
2022-10-26T00:23:46.893Z,17.20
2022-10-26T00:24:46.903Z,13.00
2022-10-26T00:25:46.942Z,14.00
2022-10-26T00:26:46.881Z,16.90
2022-10-26T00:27:47.187Z,18.00
2022-10-26T00:28:46.908Z,18.10
2022-10-26T00:29:46.856Z,15.50
2022-10-26T00:30:46.854Z,12.50
2022-10-26T00:31:46.860Z,11.80
2022-10-26T00:32:46.859Z,16.40
2022-10-26T00:33:46.829Z,15.90
2022-10-26T00:34:47.696Z,11.40
2022-10-26T00:35:46.807Z,8.60
2022-10-26T00:36:46.811Z,15.10
2022-10-26T00:37:47.215Z,12.80
2022-10-26T00:38:46.799Z,13.70
2022-10-26T00:39:46.811Z,14.80
2022-10-26T00:40:46.868Z,14.90
2022-10-26T00:41:46.772Z,17.90
2022-10-26T00:42:47.128Z,12.70
2022-10-26T00:43:46.755Z,15.50
2022-10-26T00:44:46.764Z,17.10
2022-10-26T00:45:46.737Z,15.70
2022-10-26T00:46:46.758Z,11.90
2022-10-26T00:47:46.738Z,18.80
2022-10-26T00:48:46.726Z,17.70
2022-10-26T00:49:46.721Z,12.50
2022-10-26T00:50:46.729Z,15.10
2022-10-26T00:51:46.770Z,18.00
2022-10-26T00:52:47.153Z,16.20
2022-10-26T00:53:46.706Z,21.50
2022-10-26T00:54:46.688Z,15.70
2022-10-26T00:55:46.672Z,11.50
2022-10-26T00:56:47.072Z,13.70
2022-10-26T00:57:46.655Z,11.20
2022-10-26T00:58:46.658Z,10.90
2022-10-26T00:59:46.646Z,14.60
2022-10-26T01:00:46.764Z,14.40
2022-10-26T01:01:47.191Z,12.00
2022-10-26T01:02:47.069Z,10.20
2022-10-26T01:03:46.685Z,9.20
2022-10-26T01:04:46.641Z,11.90
2022-10-26T01:05:46.608Z,10.60
2022-10-26T01:06:46.600Z,16.40
2022-10-26T01:07:46.819Z,13.20
2022-10-26T01:08:47.009Z,13.20
2022-10-26T01:09:46.603Z,15.70
2022-10-26T01:10:46.560Z,11.70
2022-10-26T01:11:46.557Z,15.00
2022-10-26T01:12:46.548Z,13.50
2022-10-26T01:13:46.551Z,9.60
2022-10-26T01:14:46.781Z,14.60
2022-10-26T01:15:46.517Z,8.50
2022-10-26T01:16:46.533Z,9.70
2022-10-26T01:17:46.960Z,16.00
2022-10-26T01:18:46.506Z,22.20
2022-10-26T01:19:46.514Z,30.20
2022-10-26T01:20:46.523Z,28.70
2022-10-26T01:21:46.481Z,18.40
2022-10-26T01:22:46.481Z,16.50
2022-10-26T01:23:46.498Z,19.50
2022-10-26T01:24:46.472Z,25.20
2022-10-26T01:25:46.475Z,24.80
2022-10-26T01:26:46.562Z,19.90
2022-10-26T01:27:46.689Z,24.20
2022-10-26T01:28:46.466Z,20.60
2022-10-26T01:29:46.426Z,16.40
2022-10-26T01:30:46.947Z,17.20
2022-10-26T01:31:46.447Z,16.50
2022-10-26T01:32:46.446Z,12.00
2022-10-26T01:33:46.443Z,12.90
2022-10-26T01:34:46.442Z,15.70
2022-10-26T01:35:46.392Z,13.80
2022-10-26T01:36:47.246Z,13.30
2022-10-26T01:37:46.656Z,18.20
2022-10-26T01:38:46.375Z,13.60
2022-10-26T01:39:46.391Z,13.90
2022-10-26T01:40:46.403Z,13.60
2022-10-26T01:41:46.800Z,12.00
2022-10-26T01:42:46.376Z,13.50
2022-10-26T01:43:46.350Z,13.80
2022-10-26T01:44:46.331Z,10.90
2022-10-26T01:45:46.322Z,14.70
2022-10-26T01:46:46.315Z,13.50
2022-10-26T01:47:46.662Z,15.70
2022-10-26T01:48:46.308Z,12.90
2022-10-26T01:49:46.291Z,14.80
2022-10-26T01:50:46.284Z,14.10
2022-10-26T01:51:46.326Z,13.00
2022-10-26T01:52:46.271Z,15.70
2022-10-26T01:53:46.692Z,14.80
2022-10-26T01:54:46.255Z,13.80
2022-10-26T01:55:46.292Z,15.10
2022-10-26T01:56:46.238Z,14.00
2022-10-26T01:57:46.549Z,13.90
2022-10-26T01:58:46.267Z,15.40
2022-10-26T01:59:46.246Z,14.60
2022-10-26T02:00:46.230Z,23.80
2022-10-26T02:01:46.307Z,17.90
2022-10-26T02:02:46.232Z,18.70
2022-10-26T02:03:46.243Z,14.80
2022-10-26T02:04:46.201Z,16.40
2022-10-26T02:05:46.185Z,21.60
2022-10-26T02:06:46.174Z,17.20
2022-10-26T02:07:46.348Z,17.50
2022-10-26T02:08:46.591Z,15.70
2022-10-26T02:09:46.160Z,11.40
2022-10-26T02:10:46.137Z,11.30
2022-10-26T02:11:46.126Z,13.30
2022-10-26T02:12:46.141Z,13.80
2022-10-26T02:13:46.136Z,15.00
2022-10-26T02:14:47.536Z,16.80
2022-10-26T02:15:46.104Z,15.10
2022-10-26T02:16:46.092Z,18.90
2022-10-26T02:17:46.249Z,11.90
2022-10-26T02:18:46.924Z,14.20
2022-10-26T02:19:46.093Z,14.10
2022-10-26T02:20:46.081Z,16.90
2022-10-26T02:21:46.059Z,14.80
2022-10-26T02:22:46.079Z,19.90
2022-10-26T02:23:46.080Z,14.80
2022-10-26T02:24:46.096Z,14.30
2022-10-26T02:25:46.131Z,18.80
2022-10-26T02:26:46.034Z,14.20
2022-10-26T02:27:46.229Z,12.50
2022-10-26T02:28:46.072Z,15.80
2022-10-26T02:29:46.030Z,16.20
2022-10-26T02:30:46.027Z,16.40
2022-10-26T02:31:46.020Z,17.00
2022-10-26T02:32:45.999Z,16.90
2022-10-26T02:33:46.023Z,12.90
2022-10-26T02:34:45.976Z,13.20
2022-10-26T02:35:45.958Z,16.70
2022-10-26T02:36:45.962Z,18.60
2022-10-26T02:37:46.017Z,12.80
2022-10-26T02:38:45.942Z,13.90
2022-10-26T02:39:45.947Z,18.70
2022-10-26T02:40:45.955Z,12.70
2022-10-26T02:41:45.937Z,13.40
2022-10-26T02:42:45.901Z,11.60
2022-10-26T02:43:45.911Z,13.70
2022-10-26T02:44:45.917Z,13.00
2022-10-26T02:45:45.906Z,13.00
2022-10-26T02:46:45.890Z,18.60
2022-10-26T02:47:45.991Z,14.30
2022-10-26T02:48:46.049Z,9.90
2022-10-26T02:49:45.884Z,9.20
2022-10-26T02:50:45.848Z,16.40
2022-10-26T02:51:45.928Z,12.70
2022-10-26T02:52:45.956Z,12.10
2022-10-26T02:53:45.831Z,12.70
2022-10-26T02:54:45.871Z,11.30
2022-10-26T02:55:45.826Z,11.80
2022-10-26T02:56:45.848Z,18.40
2022-10-26T02:57:45.796Z,12.90
2022-10-26T02:58:46.248Z,12.70
2022-10-26T02:59:45.789Z,14.80
2022-10-26T03:00:45.788Z,11.30
2022-10-26T03:01:45.881Z,15.20
2022-10-26T03:02:48.415Z,15.20
2022-10-26T03:03:45.839Z,16.80
2022-10-26T03:04:45.744Z,15.50
2022-10-26T03:05:45.744Z,15.00
2022-10-26T03:06:46.754Z,16.30
2022-10-26T03:07:45.724Z,13.20
2022-10-26T03:08:45.851Z,15.80
2022-10-26T03:09:45.712Z,13.90
2022-10-26T03:10:45.751Z,9.30
2022-10-26T03:11:45.797Z,14.00
2022-10-26T03:12:45.858Z,14.90
2022-10-26T03:13:45.707Z,13.40
2022-10-26T03:14:45.683Z,12.10
2022-10-26T03:15:45.683Z,15.50
2022-10-26T03:16:45.721Z,11.90
2022-10-26T03:17:45.765Z,14.90
2022-10-26T03:18:45.719Z,11.90
2022-10-26T03:19:45.647Z,15.10
2022-10-26T03:20:45.643Z,13.10
2022-10-26T03:21:45.876Z,11.50
2022-10-26T03:22:45.614Z,11.30
2022-10-26T03:23:45.652Z,15.40
2022-10-26T03:24:45.881Z,11.10
2022-10-26T03:25:45.618Z,9.50
2022-10-26T03:26:45.606Z,11.80
2022-10-26T03:27:45.645Z,15.90
2022-10-26T03:28:45.578Z,17.90
2022-10-26T03:29:45.580Z,16.00
2022-10-26T03:30:45.557Z,18.10
2022-10-26T03:31:45.624Z,20.50
2022-10-26T03:32:45.652Z,12.10
2022-10-26T03:33:45.569Z,12.50
2022-10-26T03:34:45.589Z,12.00
2022-10-26T03:35:45.527Z,16.90
2022-10-26T03:36:45.524Z,18.10
2022-10-26T03:37:45.525Z,18.20
2022-10-26T03:38:45.571Z,14.50
2022-10-26T03:39:45.510Z,17.20
2022-10-26T03:40:45.493Z,23.00
2022-10-26T03:41:45.754Z,16.90
2022-10-26T03:42:45.556Z,19.40
2022-10-26T03:43:45.508Z,18.20
2022-10-26T03:44:45.523Z,17.10
2022-10-26T03:45:45.456Z,14.40
2022-10-26T03:46:45.462Z,18.50
2022-10-26T03:47:45.435Z,15.40
2022-10-26T03:48:45.933Z,20.50
2022-10-26T03:49:45.447Z,21.30
2022-10-26T03:50:45.411Z,16.70
2022-10-26T03:51:45.468Z,18.70
2022-10-26T03:52:45.586Z,16.10
2022-10-26T03:53:45.426Z,11.80
2022-10-26T03:54:45.394Z,14.10
2022-10-26T03:55:45.391Z,18.20
2022-10-26T03:56:45.371Z,15.50
2022-10-26T03:57:45.371Z,20.50
2022-10-26T03:58:45.412Z,17.10
2022-10-26T03:59:46.192Z,18.50
2022-10-26T04:00:45.348Z,14.20
2022-10-26T04:01:45.493Z,18.00
2022-10-26T04:02:45.328Z,15.10
2022-10-26T04:03:45.381Z,16.40
2022-10-26T04:04:45.378Z,15.10
2022-10-26T04:05:45.339Z,14.20
2022-10-26T04:07:45.328Z,16.90
2022-10-26T04:08:45.301Z,16.20
2022-10-26T04:09:45.314Z,18.20
2022-10-26T04:10:45.286Z,18.60
2022-10-26T04:11:45.271Z,14.70
2022-10-26T04:12:45.280Z,12.30
2022-10-26T04:13:45.252Z,12.90
2022-10-26T04:14:45.299Z,11.20
2022-10-26T04:15:45.412Z,15.90
2022-10-26T04:16:45.232Z,13.50
2022-10-26T04:17:45.232Z,11.20
2022-10-26T04:18:45.230Z,15.70
2022-10-26T04:19:45.217Z,14.80
2022-10-26T04:20:45.223Z,13.80
2022-10-26T04:21:45.229Z,13.50
2022-10-26T04:22:45.190Z,17.30
2022-10-26T04:23:45.225Z,13.10
2022-10-26T04:24:45.201Z,10.60
2022-10-26T04:25:45.170Z,12.00
2022-10-26T04:26:45.180Z,15.70
2022-10-26T04:27:45.213Z,10.90
2022-10-26T04:28:45.201Z,14.80
2022-10-26T04:29:45.248Z,13.60
2022-10-26T04:30:45.146Z,16.30
2022-10-26T04:31:45.143Z,14.40
2022-10-26T04:32:45.131Z,11.90
2022-10-26T04:33:45.115Z,9.60
2022-10-26T04:34:45.174Z,11.50
2022-10-26T04:35:45.178Z,12.20
2022-10-26T04:36:45.094Z,10.10
2022-10-26T04:37:45.126Z,8.20
2022-10-26T04:38:45.145Z,10.40
2022-10-26T04:39:45.138Z,17.70
2022-10-26T04:40:45.144Z,14.40
2022-10-26T04:41:45.124Z,10.90
2022-10-26T04:42:45.072Z,10.60
2022-10-26T04:43:45.064Z,16.50
2022-10-26T04:44:45.087Z,13.50
2022-10-26T04:45:45.028Z,11.90
2022-10-26T04:46:45.037Z,15.40
2022-10-26T04:47:45.025Z,13.30
2022-10-26T04:48:44.995Z,13.30
2022-10-26T04:49:45.011Z,10.20
2022-10-26T04:50:45.033Z,13.70
2022-10-26T04:51:44.996Z,11.70
2022-10-26T04:52:44.982Z,11.80
2022-10-26T04:53:44.980Z,13.80
2022-10-26T04:54:44.978Z,12.70
2022-10-26T04:55:44.971Z,9.00
2022-10-26T04:57:44.967Z,10.80
2022-10-26T04:58:45.056Z,15.40
2022-10-26T04:59:44.915Z,10.90
2022-10-26T05:00:44.990Z,11.10
2022-10-26T05:01:45.094Z,11.90
2022-10-26T05:02:44.910Z,10.20
2022-10-26T05:03:45.165Z,12.00
2022-10-26T05:04:44.881Z,13.40
2022-10-26T05:05:44.892Z,14.50
2022-10-26T05:06:44.899Z,15.10
2022-10-26T05:07:44.861Z,15.10
2022-10-26T05:08:44.862Z,15.00
2022-10-26T05:09:44.911Z,19.00
2022-10-26T05:10:44.891Z,12.90
2022-10-26T05:11:44.850Z,13.20
2022-10-26T05:12:44.825Z,14.60
2022-10-26T05:13:44.814Z,13.40
2022-10-26T05:14:44.804Z,16.00
2022-10-26T05:15:44.805Z,13.30
2022-10-26T05:16:44.828Z,14.00
2022-10-26T05:17:44.809Z,16.70
2022-10-26T05:18:44.796Z,14.70
2022-10-26T05:19:44.905Z,13.80
2022-10-26T05:20:44.771Z,16.40
2022-10-26T05:22:44.755Z,21.00
2022-10-26T05:23:44.760Z,17.10
2022-10-26T05:24:44.743Z,16.50
2022-10-26T05:25:44.772Z,16.50
2022-10-26T05:26:44.736Z,18.00
2022-10-26T05:27:44.722Z,21.90
2022-10-26T05:28:44.715Z,15.70
2022-10-26T05:29:44.714Z,16.20
2022-10-26T05:30:44.701Z,17.80
2022-10-26T05:31:44.713Z,19.40
2022-10-26T05:32:45.299Z,20.20
2022-10-26T05:33:44.674Z,17.90
2022-10-26T05:34:45.361Z,20.10
2022-10-26T05:35:44.673Z,18.90
2022-10-26T05:36:44.738Z,16.00
2022-10-26T05:37:44.725Z,15.80
2022-10-26T05:38:44.654Z,15.10
2022-10-26T05:39:44.633Z,16.10
2022-10-26T05:40:44.647Z,16.70
2022-10-26T05:41:44.646Z,18.30
2022-10-26T05:42:44.613Z,19.40
2022-10-26T05:43:44.680Z,17.20
2022-10-26T05:44:44.613Z,15.50
2022-10-26T05:45:44.598Z,17.70
2022-10-26T05:46:44.613Z,15.40
2022-10-26T05:47:44.625Z,15.90
2022-10-26T05:48:44.564Z,18.10
2022-10-26T05:49:44.602Z,15.30
2022-10-26T05:50:44.560Z,15.20
2022-10-26T05:51:44.543Z,16.90
2022-10-26T05:52:44.543Z,17.50
2022-10-26T05:53:44.526Z,18.10
2022-10-26T05:54:44.527Z,17.30
2022-10-26T05:55:44.595Z,14.00
2022-10-26T05:56:44.530Z,13.40
2022-10-26T05:57:44.579Z,13.90
2022-10-26T05:58:45.123Z,12.90
2022-10-26T05:59:44.506Z,15.30
2022-10-26T06:00:44.482Z,17.50
2022-10-26T06:01:44.634Z,16.00
2022-10-26T06:02:44.587Z,13.40
2022-10-26T06:03:44.471Z,15.70
2022-10-26T06:04:44.492Z,17.90
2022-10-26T06:05:44.455Z,23.40
2022-10-26T06:06:44.463Z,20.80
2022-10-26T06:07:44.721Z,31.30
2022-10-26T06:08:44.540Z,19.20
2022-10-26T06:09:44.751Z,24.00
2022-10-26T06:10:44.415Z,18.00
2022-10-26T06:11:44.479Z,20.00
2022-10-26T06:12:44.414Z,18.50
2022-10-26T06:13:44.450Z,13.10
2022-10-26T06:14:44.396Z,15.60
2022-10-26T06:15:44.390Z,13.80
2022-10-26T06:16:44.375Z,11.90
2022-10-26T06:17:44.380Z,17.40
2022-10-26T06:18:44.385Z,14.60
2022-10-26T06:19:44.359Z,14.90
2022-10-26T06:20:44.350Z,13.70
2022-10-26T06:21:44.412Z,14.60
2022-10-26T06:22:44.340Z,18.60
2022-10-26T06:23:44.328Z,15.70
2022-10-26T06:24:44.332Z,16.20
2022-10-26T06:25:44.316Z,18.50
2022-10-26T06:26:44.315Z,15.40
2022-10-26T06:27:44.326Z,15.90
2022-10-26T06:28:47.328Z,12.90
2022-10-26T06:29:45.328Z,20.00
2022-10-26T06:30:44.280Z,19.60
2022-10-26T06:31:44.275Z,16.70
2022-10-26T06:32:44.264Z,21.30
2022-10-26T06:33:44.260Z,18.60
2022-10-26T06:34:44.675Z,18.00
2022-10-26T06:35:44.260Z,17.90
2022-10-26T06:36:44.374Z,14.40
2022-10-26T06:37:44.235Z,14.60
2022-10-26T06:38:44.291Z,12.70
2022-10-26T06:39:44.283Z,13.50
2022-10-26T06:40:44.308Z,13.50
2022-10-26T06:41:44.199Z,15.40
2022-10-26T06:42:44.194Z,15.20
2022-10-26T06:43:45.713Z,11.70
2022-10-26T06:44:44.203Z,15.80
2022-10-26T06:45:44.212Z,17.60
2022-10-26T06:46:44.205Z,13.30
2022-10-26T06:47:44.242Z,12.40
2022-10-26T06:48:44.213Z,10.70
2022-10-26T06:49:44.155Z,15.90
2022-10-26T06:50:44.128Z,17.20
2022-10-26T06:51:44.140Z,14.20
2022-10-26T06:52:44.119Z,13.60
2022-10-26T06:53:44.133Z,11.90
2022-10-26T06:54:44.920Z,11.80
2022-10-26T06:55:44.088Z,11.50
2022-10-26T06:56:44.120Z,13.10
2022-10-26T06:57:44.085Z,16.30
2022-10-26T06:58:44.069Z,14.50
2022-10-26T06:59:44.108Z,15.70
2022-10-26T07:00:44.049Z,14.00
2022-10-26T07:01:44.293Z,11.70
2022-10-26T07:02:44.195Z,16.50
2022-10-26T07:03:44.034Z,14.90
2022-10-26T07:04:44.059Z,17.50
2022-10-26T07:05:44.043Z,12.90
2022-10-26T07:06:44.029Z,15.60
2022-10-26T07:07:45.009Z,15.10
2022-10-26T07:08:43.995Z,13.20
2022-10-26T07:09:43.988Z,14.60
2022-10-26T07:10:43.990Z,16.50
2022-10-26T07:11:43.997Z,11.50
2022-10-26T07:12:43.986Z,15.50
2022-10-26T07:13:43.967Z,12.00
2022-10-26T07:14:43.978Z,14.90
2022-10-26T07:15:43.961Z,15.10
2022-10-26T07:16:43.954Z,11.20
2022-10-26T07:17:43.972Z,15.20
2022-10-26T07:18:43.980Z,13.00
2022-10-26T07:19:43.925Z,15.40
2022-10-26T07:20:43.919Z,14.70
2022-10-26T07:21:43.934Z,11.90
2022-10-26T07:22:43.903Z,10.20
2022-10-26T07:23:43.893Z,14.70
2022-10-26T07:24:43.888Z,15.70
2022-10-26T07:25:43.885Z,13.40
2022-10-26T07:26:43.975Z,10.30
2022-10-26T07:27:43.879Z,11.80
2022-10-26T07:28:43.853Z,11.90
2022-10-26T07:29:43.851Z,12.20
2022-10-26T07:30:43.857Z,13.10
2022-10-26T07:31:43.915Z,18.30
2022-10-26T07:32:43.832Z,13.10
2022-10-26T07:33:43.852Z,15.10
2022-10-26T07:34:43.810Z,12.50
2022-10-26T07:35:43.818Z,13.40
2022-10-26T07:36:43.802Z,13.10
2022-10-26T07:37:43.812Z,13.20
2022-10-26T07:38:43.781Z,11.10
2022-10-26T07:39:43.783Z,15.10
2022-10-26T07:40:43.771Z,16.30
2022-10-26T07:41:43.768Z,12.80
2022-10-26T07:42:46.874Z,12.80
2022-10-26T07:43:43.753Z,10.80
2022-10-26T07:44:43.846Z,11.00
2022-10-26T07:45:43.757Z,10.50
2022-10-26T07:46:43.730Z,13.70
2022-10-26T07:47:43.733Z,10.70
2022-10-26T07:48:46.960Z,11.60
2022-10-26T07:49:43.726Z,11.40
2022-10-26T07:50:43.709Z,9.20
2022-10-26T07:51:43.710Z,9.50
2022-10-26T07:52:43.689Z,16.40
2022-10-26T07:53:43.695Z,11.20
2022-10-26T07:54:43.681Z,9.00
2022-10-26T07:55:43.694Z,9.50
2022-10-26T07:56:43.670Z,9.80
2022-10-26T07:57:43.679Z,8.40
2022-10-26T07:58:43.711Z,10.90
2022-10-26T07:59:43.651Z,22.00
2022-10-26T08:00:43.720Z,45.80
2022-10-26T08:01:43.683Z,16.30
2022-10-26T08:02:43.629Z,17.60
2022-10-26T08:03:43.621Z,15.90
2022-10-26T08:04:43.637Z,13.20
2022-10-26T08:05:43.784Z,13.30
2022-10-26T08:06:43.591Z,9.60
2022-10-26T08:07:43.594Z,10.40
2022-10-26T08:08:46.549Z,9.90
2022-10-26T08:09:43.571Z,11.50
2022-10-26T08:10:43.571Z,10.30
2022-10-26T08:11:47.716Z,8.60
2022-10-26T08:12:43.571Z,10.90
2022-10-26T08:13:43.669Z,8.80
2022-10-26T08:14:43.539Z,8.90
2022-10-26T08:15:43.541Z,10.80
2022-10-26T08:16:43.535Z,8.40
2022-10-26T08:17:43.516Z,10.10
2022-10-26T08:18:43.534Z,10.50
2022-10-26T08:19:43.500Z,8.30
2022-10-26T08:20:43.526Z,8.70
2022-10-26T08:21:43.492Z,8.80
2022-10-26T08:22:43.479Z,11.20
2022-10-26T08:23:43.476Z,12.10
2022-10-26T08:24:43.490Z,8.90
2022-10-26T08:25:43.468Z,11.40
2022-10-26T08:26:43.452Z,9.70
2022-10-26T08:27:43.453Z,10.70
2022-10-26T08:28:43.438Z,10.40
2022-10-26T08:29:43.429Z,11.80
2022-10-26T08:30:43.643Z,14.00
2022-10-26T08:31:43.417Z,9.90
2022-10-26T08:32:43.420Z,10.50
2022-10-26T08:33:45.023Z,7.80
2022-10-26T08:34:43.455Z,10.30
2022-10-26T08:35:43.408Z,9.20
2022-10-26T08:36:43.413Z,9.10
2022-10-26T08:37:43.382Z,8.40
2022-10-26T08:38:43.379Z,9.60
2022-10-26T08:39:44.087Z,10.10
2022-10-26T08:40:43.402Z,13.00
2022-10-26T08:41:43.360Z,10.30
2022-10-26T08:42:43.495Z,11.60
2022-10-26T08:43:43.341Z,14.10
2022-10-26T08:44:43.811Z,15.90
2022-10-26T08:45:43.338Z,13.90
2022-10-26T08:46:43.377Z,10.20
2022-10-26T08:47:43.321Z,9.90
2022-10-26T08:48:43.311Z,10.80
2022-10-26T08:49:43.329Z,8.70
2022-10-26T08:50:43.304Z,9.20
2022-10-26T08:51:43.285Z,7.30
2022-10-26T08:52:43.309Z,8.90
2022-10-26T08:53:43.293Z,10.50
2022-10-26T08:54:43.262Z,8.30
2022-10-26T08:56:44.942Z,9.90
2022-10-26T08:57:43.247Z,10.00
2022-10-26T08:58:43.308Z,11.00
2022-10-26T08:59:43.231Z,9.10
2022-10-26T09:00:43.305Z,10.60
2022-10-26T09:01:43.353Z,10.40
2022-10-26T09:02:43.206Z,11.60
2022-10-26T09:03:43.209Z,6.90
2022-10-26T09:04:43.203Z,8.40
2022-10-26T09:05:43.191Z,12.40
2022-10-26T09:06:43.199Z,10.90
2022-10-26T09:07:43.168Z,10.80
2022-10-26T09:08:43.223Z,9.70
2022-10-26T09:09:43.165Z,16.60
2022-10-26T09:10:43.154Z,9.50
2022-10-26T09:11:43.159Z,9.80
2022-10-26T09:12:43.141Z,14.20
2022-10-26T09:13:43.132Z,7.40
2022-10-26T09:14:43.154Z,7.30
2022-10-26T09:15:43.568Z,10.60
2022-10-26T09:16:43.222Z,12.60
2022-10-26T09:17:43.120Z,37.00
2022-10-26T09:18:43.149Z,11.80
2022-10-26T09:19:43.099Z,9.50
2022-10-26T09:20:43.135Z,6.70
2022-10-26T09:21:43.099Z,11.20
2022-10-26T09:22:43.074Z,10.70
2022-10-26T09:23:43.061Z,7.80
2022-10-26T09:24:43.080Z,7.70
2022-10-26T09:25:43.062Z,8.00
2022-10-26T09:26:43.080Z,11.90
2022-10-26T09:27:43.057Z,7.40
2022-10-26T09:28:43.042Z,7.80
2022-10-26T09:29:43.081Z,7.70
2022-10-26T09:30:43.788Z,8.60
2022-10-26T09:31:43.721Z,9.40
2022-10-26T09:32:43.010Z,9.50
2022-10-26T09:33:43.003Z,6.80
2022-10-26T09:34:42.999Z,10.50
2022-10-26T09:35:42.981Z,8.30
2022-10-26T09:36:42.973Z,9.00
2022-10-26T09:37:43.024Z,10.70
2022-10-26T09:38:42.961Z,8.50
2022-10-26T09:39:42.967Z,12.60
2022-10-26T09:40:43.637Z,7.80
2022-10-26T09:41:42.939Z,8.10
2022-10-26T09:42:42.937Z,12.00
2022-10-26T09:43:43.030Z,8.50
2022-10-26T09:44:42.924Z,9.80
2022-10-26T09:45:42.972Z,12.20
2022-10-26T09:46:42.911Z,9.60
2022-10-26T09:47:42.926Z,12.00
2022-10-26T09:48:42.888Z,9.30
2022-10-26T09:49:42.893Z,12.80
2022-10-26T09:50:42.873Z,8.40
2022-10-26T09:51:42.889Z,13.60
2022-10-26T09:52:44.106Z,7.60
2022-10-26T09:53:42.881Z,9.10
2022-10-26T09:54:42.865Z,13.50
2022-10-26T09:55:42.857Z,9.60
2022-10-26T09:56:42.862Z,12.00
2022-10-26T09:57:42.870Z,11.60
2022-10-26T09:58:43.208Z,17.30
2022-10-26T09:59:42.810Z,10.90
2022-10-26T10:00:42.806Z,10.80
2022-10-26T10:01:42.913Z,13.70
2022-10-26T10:02:42.836Z,11.40
2022-10-26T10:03:42.792Z,10.40
2022-10-26T10:04:42.778Z,10.00
2022-10-26T10:05:51.804Z,7.60
2022-10-26T10:06:43.766Z,12.80
2022-10-26T10:07:42.760Z,9.70
2022-10-26T10:08:44.095Z,9.20
2022-10-26T10:09:42.747Z,10.70
2022-10-26T10:10:42.729Z,16.00
2022-10-26T10:11:42.817Z,11.90
2022-10-26T10:12:43.010Z,18.80
2022-10-26T10:13:42.710Z,10.80
2022-10-26T10:14:42.708Z,11.80
2022-10-26T10:15:42.707Z,8.30
2022-10-26T10:16:42.689Z,10.00
2022-10-26T10:17:43.159Z,6.60
2022-10-26T10:18:42.687Z,11.10
2022-10-26T10:19:42.689Z,10.90
2022-10-26T10:20:42.668Z,9.90
2022-10-26T10:21:42.651Z,11.20
2022-10-26T10:22:42.665Z,9.90
2022-10-26T10:23:42.643Z,13.30
2022-10-26T10:24:42.631Z,7.30
2022-10-26T10:25:42.655Z,8.20
2022-10-26T10:26:42.646Z,11.70
2022-10-26T10:27:42.615Z,15.30
2022-10-26T10:28:42.634Z,9.20
2022-10-26T10:29:42.592Z,11.80
2022-10-26T10:30:42.584Z,8.00
2022-10-26T10:31:42.601Z,9.80
2022-10-26T10:32:42.574Z,10.50
2022-10-26T10:33:42.562Z,11.80
2022-10-26T10:34:42.565Z,10.00
2022-10-26T10:35:42.684Z,16.10
2022-10-26T10:36:42.567Z,9.70
2022-10-26T10:37:42.541Z,9.20
2022-10-26T10:38:42.557Z,7.50
2022-10-26T10:39:42.530Z,8.70
2022-10-26T10:40:42.528Z,8.90
2022-10-26T10:41:42.506Z,7.80
2022-10-26T10:42:42.521Z,5.70
2022-10-26T10:43:43.129Z,8.00
2022-10-26T10:44:42.513Z,8.00
2022-10-26T10:45:42.493Z,6.70
2022-10-26T10:46:42.473Z,10.00
2022-10-26T10:48:42.460Z,8.60
2022-10-26T10:49:42.517Z,12.40
2022-10-26T10:50:42.442Z,10.30
2022-10-26T10:51:42.895Z,9.20
2022-10-26T10:52:42.431Z,8.70
2022-10-26T10:53:42.426Z,10.20
2022-10-26T10:54:42.422Z,8.20
2022-10-26T10:55:42.473Z,11.50
2022-10-26T10:56:42.400Z,7.50
2022-10-26T10:57:42.671Z,12.00
2022-10-26T10:58:42.385Z,12.40
2022-10-26T10:59:42.423Z,12.70
2022-10-26T11:00:42.403Z,12.20
2022-10-26T11:01:42.473Z,10.90
2022-10-26T11:02:42.436Z,12.10
2022-10-26T11:03:42.847Z,8.70
2022-10-26T11:04:42.350Z,11.20
2022-10-26T11:05:42.340Z,11.60
2022-10-26T11:06:42.486Z,9.60
2022-10-26T11:07:42.756Z,8.20
2022-10-26T11:08:42.349Z,9.40
2022-10-26T11:09:42.376Z,13.50
2022-10-26T11:10:42.306Z,12.60
2022-10-26T11:11:45.465Z,9.70
2022-10-26T11:12:42.301Z,9.80
2022-10-26T11:13:42.305Z,8.70
2022-10-26T11:14:44.184Z,10.90
2022-10-26T11:15:42.726Z,7.60
2022-10-26T11:16:42.287Z,9.60
2022-10-26T11:17:42.271Z,13.10
2022-10-26T11:18:42.251Z,6.40
2022-10-26T11:19:42.278Z,11.90
2022-10-26T11:20:42.249Z,13.10
2022-10-26T11:21:42.276Z,8.50
2022-10-26T11:22:42.232Z,11.80
2022-10-26T11:23:42.225Z,11.10
2022-10-26T11:24:42.210Z,8.10
2022-10-26T11:25:42.938Z,8.30
2022-10-26T11:26:45.159Z,8.30
2022-10-26T11:27:42.206Z,9.10
2022-10-26T11:28:42.204Z,9.80
2022-10-26T11:29:43.498Z,9.30
2022-10-26T11:30:42.177Z,7.40
2022-10-26T11:31:42.282Z,6.10
2022-10-26T11:32:42.178Z,8.60
2022-10-26T11:33:42.803Z,6.10
2022-10-26T11:34:42.147Z,6.80
2022-10-26T11:35:42.141Z,9.50
2022-10-26T11:36:42.145Z,9.70
2022-10-26T11:37:43.093Z,5.30
2022-10-26T11:38:46.453Z,6.60
2022-10-26T11:39:43.106Z,7.80
2022-10-26T11:40:42.098Z,9.10
2022-10-26T11:41:42.087Z,6.90
2022-10-26T11:42:42.843Z,6.70
2022-10-26T11:43:42.073Z,7.40
2022-10-26T11:44:42.059Z,5.60
2022-10-26T11:45:42.065Z,4.50
2022-10-26T11:46:42.073Z,5.20
2022-10-26T11:47:42.057Z,6.70
2022-10-26T11:48:42.089Z,4.20
2022-10-26T11:49:42.500Z,7.80
2022-10-26T11:50:42.023Z,5.00
2022-10-26T11:51:42.026Z,5.30
2022-10-26T11:52:42.018Z,5.80
2022-10-26T11:53:42.011Z,7.20
2022-10-26T11:54:42.014Z,7.20
2022-10-26T11:55:41.986Z,5.00
2022-10-26T11:56:41.985Z,7.40
2022-10-26T11:57:42.204Z,8.60
2022-10-26T11:58:41.970Z,5.70
2022-10-26T11:59:41.963Z,7.50
2022-10-26T12:00:41.952Z,5.30
2022-10-26T12:01:42.058Z,4.20
2022-10-26T12:03:42.145Z,6.10
2022-10-26T12:04:42.173Z,9.00
2022-10-26T12:05:41.931Z,6.70
2022-10-26T12:06:41.933Z,6.10
2022-10-26T12:07:41.905Z,7.00
2022-10-26T12:08:41.906Z,4.00
2022-10-26T12:09:41.895Z,5.70
2022-10-26T12:10:41.897Z,4.50
2022-10-26T12:11:42.306Z,5.40
2022-10-26T12:12:41.887Z,6.80
2022-10-26T12:13:41.869Z,4.10
2022-10-26T12:14:41.863Z,7.90
2022-10-26T12:16:11.263Z,5.20
2022-10-26T12:16:42.854Z,11.80
2022-10-26T12:17:42.357Z,4.90
2022-10-26T12:18:56.637Z,5.10
2022-10-26T12:19:42.838Z,4.30
2022-10-26T12:20:41.845Z,5.40
2022-10-26T12:21:42.237Z,5.30
2022-10-26T12:22:41.835Z,3.40
2022-10-26T12:23:51.334Z,5.20
2022-10-26T12:24:42.808Z,7.20
2022-10-26T12:25:41.793Z,5.50
2022-10-26T12:26:41.775Z,4.80
2022-10-26T12:27:42.506Z,6.80
2022-10-26T12:28:41.773Z,4.00
2022-10-26T12:29:41.757Z,7.80
2022-10-26T12:30:41.758Z,5.30
2022-10-26T12:31:41.756Z,5.30
2022-10-26T12:32:43.779Z,6.70
2022-10-26T12:33:41.773Z,5.60
2022-10-26T12:34:41.726Z,6.60
2022-10-26T12:35:41.738Z,6.00
2022-10-26T12:36:41.745Z,9.60
2022-10-26T12:37:41.713Z,5.20
2022-10-26T12:38:42.175Z,5.40
2022-10-26T12:39:41.712Z,6.90
2022-10-26T12:40:42.167Z,9.10
2022-10-26T12:41:41.681Z,9.10
2022-10-26T12:42:41.683Z,4.90
2022-10-26T12:43:41.805Z,6.30
2022-10-26T12:44:41.660Z,8.30
2022-10-26T12:45:41.672Z,7.50
2022-10-26T12:46:41.714Z,3.80
2022-10-26T12:47:41.638Z,4.70
2022-10-26T12:48:41.637Z,9.50
2022-10-26T12:49:41.625Z,7.40
2022-10-26T12:50:41.631Z,7.40
2022-10-26T12:51:42.061Z,6.20
2022-10-26T12:52:41.627Z,5.20
2022-10-26T12:53:45.814Z,4.30
2022-10-26T12:54:41.628Z,6.60
2022-10-26T12:55:41.599Z,6.60
2022-10-26T12:56:41.642Z,5.30
2022-10-26T12:57:41.586Z,7.10
2022-10-26T12:58:41.584Z,5.30
2022-10-26T12:59:41.577Z,5.30
2022-10-26T13:00:41.687Z,8.30
2022-10-26T13:01:41.672Z,4.80
2022-10-26T13:02:41.542Z,5.40
2022-10-26T13:03:41.536Z,5.10
2022-10-26T13:04:41.517Z,7.20
2022-10-26T13:05:41.526Z,6.20